Time;durP1;ratioP1;P1;durP2;ratioP2;P2;SDS_P1;SDS_P2;PMS_P1;PMS_P2;Temp;Humidity;BMP_temperature;BMP_pressure;BME280_temperature;BME280_humidity;BME280_pressure;Samples;Min_cycle;Max_cycle;Signal;HPM_P1;HPM_P2
2024/03/27 00:00:16;;;;;;;3.60;2.75;;;14.40;76.30;;;;;;4976555;28;20062;-38
2024/03/27 00:02:41;;;;;;;3.47;2.88;;;14.40;76.30;;;;;;4977729;28;20046;-34
2024/03/27 00:05:07;;;;;;;4.93;3.40;;;14.40;76.30;;;;;;4982369;28;20083;-39
2024/03/27 00:07:33;;;;;;;4.57;3.30;;;14.40;76.30;;;;;;4968551;28;20027;-38
2024/03/27 00:09:59;;;;;;;3.85;3.05;;;14.40;76.30;;;;;;4955299;28;20034;-36
2024/03/27 00:12:24;;;;;;;5.22;3.25;;;14.40;76.30;;;;;;4970228;28;20042;-39
2024/03/27 00:14:50;;;;;;;3.83;2.92;;;14.40;76.30;;;;;;4981989;28;20033;-39
2024/03/27 00:17:16;;;;;;;3.70;2.85;;;14.40;76.30;;;;;;4985807;28;20610;-40
2024/03/27 00:19:41;;;;;;;4.07;3.08;;;14.40;76.40;;;;;;4979049;28;20062;-38
2024/03/27 00:22:08;;;;;;;3.90;2.75;;;14.40;76.40;;;;;;4978767;28;20038;-35
2024/03/27 00:24:34;;;;;;;5.13;3.10;;;14.30;76.40;;;;;;4980484;28;20518;-41
2024/03/27 00:26:59;;;;;;;3.97;2.95;;;14.30;76.40;;;;;;4985503;28;20023;-39
2024/03/27 00:29:25;;;;;;;4.50;3.03;;;14.40;76.50;;;;;;4981551;28;20033;-39
2024/03/27 00:31:51;;;;;;;4.00;2.80;;;14.40;76.50;;;;;;4993976;28;20037;-40
2024/03/27 00:34:16;;;;;;;3.97;3.08;;;14.40;76.50;;;;;;4976560;28;20031;-38
2024/03/27 00:36:42;;;;;;;4.82;3.30;;;14.40;76.50;;;;;;4977371;28;20062;-39
2024/03/27 00:39:09;;;;;;;4.10;2.97;;;14.40;76.50;;;;;;4972713;28;20027;-39
2024/03/27 00:41:34;;;;;;;3.78;3.00;;;14.30;76.50;;;;;;4975593;28;20034;-39
2024/03/27 00:44:00;;;;;;;4.00;2.90;;;14.40;76.50;;;;;;4972715;28;20023;-40
2024/03/27 00:46:26;;;;;;;4.78;3.40;;;14.40;76.60;;;;;;4976257;28;20026;-40
2024/03/27 00:48:52;;;;;;;4.95;3.15;;;14.30;76.50;;;;;;4974524;28;20039;-38
2024/03/27 00:51:17;;;;;;;4.85;3.05;;;14.30;76.50;;;;;;4972664;28;20046;-40
2024/03/27 00:53:43;;;;;;;3.92;3.05;;;14.30;76.60;;;;;;4969263;28;20027;-38
2024/03/27 00:56:09;;;;;;;3.97;3.08;;;14.30;76.60;;;;;;4980815;28;20125;-42
2024/03/27 00:58:34;;;;;;;4.05;3.05;;;14.30;76.60;;;;;;4990571;28;20061;-40
2024/03/27 01:01:00;;;;;;;4.30;3.35;;;14.30;76.60;;;;;;4980388;28;20078;-40
2024/03/27 01:03:26;;;;;;;5.15;3.35;;;14.30;76.60;;;;;;4978184;28;20035;-42
2024/03/27 01:05:52;;;;;;;4.70;3.47;;;14.30;76.70;;;;;;4975047;28;20030;-40
2024/03/27 01:08:19;;;;;;;4.53;3.40;;;14.30;76.70;;;;;;4965659;28;20031;-40
2024/03/27 01:10:45;;;;;;;4.50;3.42;;;14.30;76.70;;;;;;4972382;28;20086;-41
2024/03/27 01:13:12;;;;;;;4.20;3.13;;;14.30;76.70;;;;;;4977683;28;20059;-41
2024/03/27 01:15:38;;;;;;;4.47;3.58;;;14.20;76.70;;;;;;4982704;28;20125;-39
2024/03/27 01:18:04;;;;;;;4.63;3.40;;;14.20;76.70;;;;;;4977630;28;20019;-40
2024/03/27 01:20:31;;;;;;;4.30;3.40;;;14.20;76.80;;;;;;4978537;28;20027;-39
2024/03/27 01:22:57;;;;;;;4.80;3.10;;;14.20;76.80;;;;;;4976804;28;20038;-37
2024/03/27 01:25:22;;;;;;;4.53;3.33;;;14.20;76.80;;;;;;4972250;28;20031;-38
2024/03/27 01:27:48;;;;;;;4.50;3.47;;;14.20;76.80;;;;;;4976861;28;20062;-41
2024/03/27 01:30:14;;;;;;;4.65;3.05;;;14.20;76.80;;;;;;4972167;28;20019;-40
2024/03/27 01:32:40;;;;;;;4.18;3.47;;;14.10;76.70;;;;;;4955814;28;20483;-39
2024/03/27 01:35:06;;;;;;;4.97;3.50;;;14.10;76.80;;;;;;4974045;28;20058;-41
2024/03/27 01:37:31;;;;;;;4.80;3.55;;;14.10;76.70;;;;;;4981187;28;20098;-40
2024/03/27 01:39:57;;;;;;;4.97;3.33;;;14.10;76.70;;;;;;4973988;28;20026;-40
2024/03/27 01:42:23;;;;;;;4.93;3.55;;;14.10;76.80;;;;;;4973384;28;20049;-39
2024/03/27 01:44:49;;;;;;;4.55;3.38;;;14.10;76.80;;;;;;4970120;28;20050;-37
2024/03/27 01:47:14;;;;;;;4.70;3.42;;;14.00;76.70;;;;;;4972785;28;20511;-39
2024/03/27 01:49:41;;;;;;;5.30;3.58;;;14.00;76.70;;;;;;4972245;28;20024;-40
2024/03/27 01:52:09;;;;;;;4.18;3.25;;;14.00;76.70;;;;;;4973709;28;20154;-39
2024/03/27 01:54:35;;;;;;;5.10;3.53;;;14.00;76.70;;;;;;4971688;28;20015;-40
2024/03/27 01:57:03;;;;;;;4.53;3.60;;;14.00;76.70;;;;;;4974054;28;20101;-40
2024/03/27 01:59:29;;;;;;;4.05;3.17;;;14.00;76.80;;;;;;4971996;28;20022;-40
2024/03/27 02:01:56;;;;;;;5.20;3.80;;;14.00;76.70;;;;;;4976882;28;20049;-40
2024/03/27 02:04:22;;;;;;;4.78;3.55;;;14.00;76.70;;;;;;4970970;28;20066;-40
2024/03/27 02:06:48;;;;;;;4.47;3.55;;;13.90;76.60;;;;;;4971377;28;20041;-41
2024/03/27 02:09:14;;;;;;;4.65;3.50;;;13.90;76.70;;;;;;4974290;28;20027;-31
2024/03/27 02:11:40;;;;;;;4.63;3.17;;;13.90;76.70;;;;;;4971727;28;20030;-32
2024/03/27 02:14:06;;;;;;;5.10;3.60;;;13.90;76.60;;;;;;4973988;28;20034;-42
2024/03/27 02:16:32;;;;;;;4.95;3.88;;;13.80;76.60;;;;;;4973476;28;20363;-40
2024/03/27 02:18:58;;;;;;;4.82;3.33;;;13.80;76.60;;;;;;4973871;28;20098;-41
2024/03/27 02:21:25;;;;;;;5.10;3.97;;;13.80;76.60;;;;;;4971833;28;20038;-37
2024/03/27 02:23:50;;;;;;;5.47;3.65;;;13.80;76.70;;;;;;4973797;28;20441;-41
2024/03/27 02:26:17;;;;;;;5.82;4.40;;;13.80;76.70;;;;;;4971527;28;20033;-40
2024/03/27 02:28:44;;;;;;;5.80;3.85;;;13.80;76.70;;;;;;4975059;28;20023;-40
2024/03/27 02:31:10;;;;;;;5.47;3.90;;;13.80;76.70;;;;;;4973522;28;20035;-38
2024/03/27 02:33:35;;;;;;;5.35;3.72;;;13.70;76.70;;;;;;4969415;28;20041;-42
2024/03/27 02:36:01;;;;;;;4.93;3.70;;;13.70;76.70;;;;;;4976980;28;20125;-39
2024/03/27 02:38:27;;;;;;;5.35;3.72;;;13.70;76.70;;;;;;4973800;28;20458;-39
2024/03/27 02:40:55;;;;;;;4.57;3.47;;;13.70;76.70;;;;;;4969906;28;20026;-41
2024/03/27 02:43:21;;;;;;;4.30;3.45;;;13.70;76.70;;;;;;4958696;28;20046;-38
2024/03/27 02:45:47;;;;;;;4.38;3.55;;;13.70;76.70;;;;;;4969732;28;20109;-41
2024/03/27 02:48:15;;;;;;;4.63;3.38;;;13.60;77.30;;;;;;4988783;28;20449;-41
2024/03/27 02:50:40;;;;;;;5.10;3.90;;;13.60;76.70;;;;;;4965914;28;20446;-40
2024/03/27 02:53:06;;;;;;;4.07;3.20;;;13.60;76.70;;;;;;4979828;28;20027;-40
2024/03/27 02:55:32;;;;;;;4.57;3.58;;;13.60;76.70;;;;;;4985314;28;20045;-41
2024/03/27 02:57:59;;;;;;;5.38;3.88;;;13.60;76.70;;;;;;4956653;28;20043;-38
2024/03/27 03:00:24;;;;;;;4.80;3.80;;;13.60;76.70;;;;;;4964088;28;20062;-40
2024/03/27 03:02:50;;;;;;;4.47;3.58;;;13.50;76.70;;;;;;4976270;28;20046;-41
2024/03/27 03:05:16;;;;;;;4.80;3.83;;;13.50;76.70;;;;;;4975412;28;20113;-41
2024/03/27 03:07:41;;;;;;;4.57;3.38;;;13.50;76.80;;;;;;4979186;28;20043;-42
2024/03/27 03:10:07;;;;;;;4.38;3.70;;;13.50;76.90;;;;;;4968167;28;20030;-42
2024/03/27 03:12:33;;;;;;;5.00;3.55;;;13.50;76.90;;;;;;4972343;28;20019;-41
2024/03/27 03:14:59;;;;;;;5.07;3.60;;;13.50;76.80;;;;;;4970411;28;20057;-38
2024/03/27 03:17:24;;;;;;;5.45;4.00;;;13.40;76.80;;;;;;4978434;28;20133;-40
2024/03/27 03:19:50;;;;;;;5.53;3.58;;;13.40;76.80;;;;;;4979843;28;20073;-37
2024/03/27 03:22:19;;;;;;;4.78;3.42;;;13.40;76.80;;;;;;4979024;28;20049;-41
2024/03/27 03:24:44;;;;;;;4.43;3.35;;;13.40;76.80;;;;;;4972281;28;20047;-40
2024/03/27 03:27:10;;;;;;;4.45;3.45;;;13.40;76.80;;;;;;4969245;28;20031;-41
2024/03/27 03:29:36;;;;;;;5.07;3.55;;;13.40;76.80;;;;;;4972904;28;20031;-40
2024/03/27 03:32:02;;;;;;;5.00;3.80;;;13.30;76.80;;;;;;4976901;28;20059;-40
2024/03/27 03:34:28;;;;;;;5.03;3.90;;;13.30;76.80;;;;;;4971242;28;20078;-40
2024/03/27 03:36:54;;;;;;;5.32;3.78;;;13.30;76.80;;;;;;4990829;28;20018;-40
2024/03/27 03:39:20;;;;;;;4.43;3.33;;;13.30;76.90;;;;;;4981821;28;20025;-40
2024/03/27 03:41:46;;;;;;;5.40;3.50;;;13.30;76.80;;;;;;4976516;28;20026;-42
2024/03/27 03:44:11;;;;;;;5.03;3.42;;;13.30;76.80;;;;;;4969336;28;20037;-37
2024/03/27 03:46:37;;;;;;;4.28;3.60;;;13.30;76.90;;;;;;4976226;28;20483;-40
2024/03/27 03:49:03;;;;;;;5.05;3.63;;;13.30;77.00;;;;;;4977303;28;20051;-40
2024/03/27 03:51:28;;;;;;;4.90;3.50;;;13.30;76.90;;;;;;4978397;28;20031;-42
2024/03/27 03:53:54;;;;;;;8.50;3.95;;;13.20;76.80;;;;;;4977559;28;20105;-41
2024/03/27 03:56:20;;;;;;;4.88;3.55;;;13.20;76.80;;;;;;4980190;28;20483;-39
2024/03/27 03:58:45;;;;;;;5.72;3.55;;;13.20;76.80;;;;;;4982234;28;20027;-41
2024/03/27 04:01:11;;;;;;;4.10;3.30;;;13.20;76.80;;;;;;4965089;28;20067;-41
2024/03/27 04:03:37;;;;;;;5.35;3.42;;;13.20;76.80;;;;;;4974426;28;20067;-35
2024/03/27 04:06:03;;;;;;;4.60;3.35;;;13.20;76.80;;;;;;4971627;28;20033;-38
2024/03/27 04:08:29;;;;;;;6.70;3.55;;;13.20;76.80;;;;;;4987842;28;20074;-40
2024/03/27 04:10:54;;;;;;;4.65;3.40;;;13.20;76.80;;;;;;4968867;28;20086;-38
2024/03/27 04:13:20;;;;;;;4.57;3.35;;;13.20;76.80;;;;;;4970039;28;20077;-38
2024/03/27 04:15:47;;;;;;;4.60;3.53;;;13.20;76.80;;;;;;4981377;28;20025;-39
2024/03/27 04:18:12;;;;;;;4.32;3.17;;;13.20;76.80;;;;;;4991315;28;20023;-37
2024/03/27 04:20:42;;;;;;;4.20;3.50;;;13.20;76.80;;;;;;4977473;28;20575;-36
2024/03/27 04:23:07;;;;;;;4.45;3.38;;;13.20;76.80;;;;;;4978263;28;20089;-37
2024/03/27 04:25:33;;;;;;;4.60;3.60;;;13.10;76.80;;;;;;4968155;28;20498;-37
2024/03/27 04:27:59;;;;;;;4.90;3.10;;;13.10;76.80;;;;;;4971472;28;20027;-39
2024/03/27 04:30:25;;;;;;;5.25;3.63;;;13.10;76.80;;;;;;4966022;28;20031;-35
2024/03/27 04:32:52;;;;;;;4.57;3.33;;;13.10;76.80;;;;;;4973960;28;20074;-38
2024/03/27 04:35:17;;;;;;;4.75;3.50;;;13.10;76.80;;;;;;4977849;28;20082;-35
2024/03/27 04:37:43;;;;;;;5.05;3.60;;;13.10;76.90;;;;;;4985783;28;20042;-39
2024/03/27 04:40:11;;;;;;;5.20;3.42;;;13.10;76.90;;;;;;4979026;28;20411;-38
2024/03/27 04:42:40;;;;;;;4.90;3.30;;;13.10;76.90;;;;;;4972541;28;20031;-40
2024/03/27 04:45:08;;;;;;;4.70;3.47;;;13.10;76.90;;;;;;4981769;28;20035;-39
2024/03/27 04:47:37;;;;;;;4.32;3.30;;;13.10;76.90;;;;;;4980408;28;20023;-38
2024/03/27 04:50:04;;;;;;;5.25;3.33;;;13.10;77.00;;;;;;4971781;28;20062;-39
2024/03/27 04:52:31;;;;;;;4.63;3.22;;;13.00;76.90;;;;;;4978931;28;20509;-39
2024/03/27 04:54:57;;;;;;;4.97;3.53;;;13.00;77.00;;;;;;4977223;28;20103;-37
2024/03/27 04:57:22;;;;;;;4.78;3.20;;;13.00;77.00;;;;;;4976652;28;20050;-40
2024/03/27 04:59:48;;;;;;;4.72;3.30;;;13.00;77.00;;;;;;4972257;28;20042;-36
2024/03/27 05:02:14;;;;;;;4.43;3.40;;;13.00;77.10;;;;;;4976845;28;20043;-39
2024/03/27 05:04:40;;;;;;;5.47;3.60;;;13.00;77.10;;;;;;4970199;28;20433;-37
2024/03/27 05:07:05;;;;;;;4.60;3.55;;;13.00;77.20;;;;;;4958578;28;20510;-40
2024/03/27 05:09:34;;;;;;;3.83;3.10;;;13.00;77.20;;;;;;4974522;28;20022;-36
2024/03/27 05:12:01;;;;;;;4.18;3.35;;;12.90;77.20;;;;;;4975087;28;20027;-40
2024/03/27 05:14:27;;;;;;;4.50;3.38;;;12.90;77.20;;;;;;4975381;28;20030;-37
2024/03/27 05:16:52;;;;;;;4.20;3.25;;;12.90;77.20;;;;;;4975639;28;20026;-41
2024/03/27 05:19:19;;;;;;;4.72;3.33;;;12.90;77.20;;;;;;4973115;28;20194;-40
2024/03/27 05:21:45;;;;;;;4.63;3.17;;;12.90;77.20;;;;;;4971167;28;20428;-39
2024/03/27 05:24:10;;;;;;;4.03;3.30;;;12.90;77.90;;;;;;4973756;28;20062;-41
2024/03/27 05:26:37;;;;;;;4.07;3.10;;;12.90;77.20;;;;;;4977622;28;20031;-40
2024/03/27 05:29:04;;;;;;;4.63;3.30;;;12.90;77.20;;;;;;4971280;28;20042;-40
2024/03/27 05:31:30;;;;;;;5.38;3.53;;;12.90;77.20;;;;;;4971904;28;20051;-40
2024/03/27 05:33:56;;;;;;;3.92;2.97;;;12.90;77.20;;;;;;4973777;28;20039;-40
2024/03/27 05:36:22;;;;;;;3.90;3.13;;;12.90;77.20;;;;;;4975670;28;20038;-41
2024/03/27 05:38:48;;;;;;;3.90;2.90;;;12.90;77.20;;;;;;4973240;28;20480;-40
2024/03/27 05:41:14;;;;;;;4.25;3.00;;;12.90;77.10;;;;;;4976140;28;20058;-41
2024/03/27 05:43:39;;;;;;;4.25;2.95;;;12.90;77.10;;;;;;4967657;28;20035;-40
2024/03/27 05:46:05;;;;;;;3.85;2.90;;;12.90;77.10;;;;;;4973477;28;20041;-40
2024/03/27 05:48:32;;;;;;;4.03;2.97;;;12.90;77.10;;;;;;4974399;28;20023;-42
2024/03/27 05:50:58;;;;;;;4.05;2.90;;;12.90;77.00;;;;;;4970352;28;20030;-40
2024/03/27 05:53:24;;;;;;;4.35;3.20;;;12.90;77.10;;;;;;4974356;28;20031;-40
2024/03/27 05:55:59;;;;;;;3.88;2.70;;;12.90;77.10;;;;;;4971311;28;20035;-39
2024/03/27 05:58:28;;;;;;;3.95;2.55;;;12.90;77.10;;;;;;4972294;28;20372;-40
2024/03/27 06:00:55;;;;;;;3.92;2.78;;;12.90;77.10;;;;;;4978070;28;20047;-41
2024/03/27 06:03:21;;;;;;;3.30;2.60;;;12.90;77.10;;;;;;4976865;28;20035;-39
2024/03/27 06:05:47;;;;;;;3.72;3.05;;;12.90;77.10;;;;;;4978696;28;20057;-40
2024/03/27 06:08:12;;;;;;;3.40;2.80;;;12.90;77.10;;;;;;4988145;28;20031;-42
2024/03/27 06:10:38;;;;;;;3.47;2.70;;;12.90;77.10;;;;;;4973514;28;20135;-38
2024/03/27 06:13:04;;;;;;;4.70;3.10;;;12.80;77.00;;;;;;4975257;28;20023;-39
2024/03/27 06:15:31;;;;;;;3.97;2.83;;;12.90;77.10;;;;;;4979656;28;20458;-42
2024/03/27 06:17:58;;;;;;;3.53;2.83;;;12.90;77.20;;;;;;4974399;28;20540;-40
2024/03/27 06:20:23;;;;;;;3.40;2.70;;;12.90;77.20;;;;;;4968822;28;20022;-41
2024/03/27 06:22:50;;;;;;;4.30;2.97;;;12.90;77.20;;;;;;4973189;28;20041;-39
2024/03/27 06:25:17;;;;;;;4.28;3.10;;;12.90;77.20;;;;;;4969750;28;20141;-40
2024/03/27 06:27:43;;;;;;;3.97;3.05;;;12.90;77.20;;;;;;4974369;28;20058;-41
2024/03/27 06:30:10;;;;;;;3.45;2.78;;;12.90;77.20;;;;;;4973858;28;20682;-41
2024/03/27 06:32:37;;;;;;;4.00;3.05;;;12.90;77.20;;;;;;4972764;28;20037;-41
2024/03/27 06:35:04;;;;;;;3.35;2.70;;;12.90;77.20;;;;;;4972298;28;20027;-39
2024/03/27 06:37:30;;;;;;;4.22;3.17;;;12.90;77.20;;;;;;4975950;28;20532;-42
2024/03/27 06:39:56;;;;;;;3.40;2.75;;;12.90;77.20;;;;;;4974455;28;20043;-38
2024/03/27 06:42:22;;;;;;;3.17;2.60;;;13.00;77.20;;;;;;4970768;28;20383;-42
2024/03/27 06:45:35;;;;;;;3.45;2.75;;;12.90;77.20;;;;;;4971773;28;20102;-38
2024/03/27 06:48:00;;;;;;;3.85;2.90;;;13.00;77.30;;;;;;4983455;28;20062;-38
2024/03/27 07:11:43;;;;;;;4.30;3.20;;;12.90;77.50;;;;;;4928398;29;20468;-35
2024/03/27 07:14:08;;;;;;;4.72;3.50;;;12.80;77.40;;;;;;4938338;29;20035;-41
2024/03/27 07:16:34;;;;;;;4.78;3.58;;;12.90;77.50;;;;;;4937338;29;20109;-38
2024/03/27 07:19:02;;;;;;;4.38;3.45;;;12.90;77.50;;;;;;4937444;29;20392;-37
2024/03/27 07:21:28;;;;;;;5.18;3.80;;;12.90;77.50;;;;;;4941081;29;20034;-36
2024/03/27 07:23:53;;;;;;;4.78;3.80;;;13.00;77.50;;;;;;4943779;29;20075;-38
2024/03/27 07:26:19;;;;;;;4.72;3.58;;;13.00;77.50;;;;;;4939563;29;20028;-38
2024/03/27 07:28:45;;;;;;;4.72;3.42;;;13.00;78.00;;;;;;4937346;28;20031;-39
2024/03/27 07:31:10;;;;;;;4.90;3.70;;;13.00;77.40;;;;;;4932109;29;20489;-36
2024/03/27 07:33:36;;;;;;;4.93;3.85;;;13.00;77.50;;;;;;4940376;29;20066;-38
2024/03/27 07:36:04;;;;;;;5.53;3.90;;;13.00;77.40;;;;;;4945456;29;20440;-37
2024/03/27 07:38:29;;;;;;;5.70;4.13;;;13.00;77.40;;;;;;4941040;29;20019;-42
2024/03/27 07:40:55;;;;;;;5.43;4.07;;;13.10;77.40;;;;;;4943080;29;20046;-40
2024/03/27 07:43:21;;;;;;;5.25;4.03;;;13.10;77.40;;;;;;4933873;29;21269;-38
2024/03/27 07:45:46;;;;;;;5.40;4.35;;;13.10;78.00;;;;;;4939252;29;20032;-40
2024/03/27 07:48:13;;;;;;;6.43;5.03;;;13.10;77.40;;;;;;4934816;29;20023;-39
2024/03/27 07:50:38;;;;;;;6.70;5.45;;;13.10;77.40;;;;;;4940503;29;20143;-41
2024/03/27 07:53:04;;;;;;;6.85;5.32;;;13.10;77.40;;;;;;4936961;29;20028;-38
2024/03/27 07:55:30;;;;;;;6.72;5.57;;;13.10;77.40;;;;;;4942595;29;20071;-40
2024/03/27 07:57:55;;;;;;;6.32;5.13;;;13.10;77.40;;;;;;4945014;29;20540;-39
2024/03/27 08:00:21;;;;;;;7.20;5.88;;;13.10;77.40;;;;;;4932348;29;20024;-38
2024/03/27 08:02:47;;;;;;;7.53;5.72;;;13.10;77.40;;;;;;4942725;29;20043;-39
2024/03/27 08:05:13;;;;;;;7.35;5.85;;;13.10;77.40;;;;;;4935612;29;20020;-37
2024/03/27 08:07:39;;;;;;;7.30;5.82;;;13.10;77.40;;;;;;4940401;29;20028;-36
2024/03/27 08:10:05;;;;;;;8.02;6.28;;;13.10;77.50;;;;;;4953554;28;20043;-37
2024/03/27 08:12:31;;;;;;;7.55;6.13;;;13.10;77.50;;;;;;4978985;28;20437;-35
2024/03/27 08:14:57;;;;;;;8.00;6.80;;;13.10;77.50;;;;;;4982983;28;20033;-34
2024/03/27 08:17:23;;;;;;;7.22;5.95;;;13.10;77.50;;;;;;4976417;28;20117;-35
2024/03/27 08:19:49;;;;;;;8.73;6.88;;;13.10;77.50;;;;;;4980022;28;20407;-35
2024/03/27 08:22:14;;;;;;;7.78;6.38;;;13.10;77.50;;;;;;4977034;28;20082;-33
2024/03/27 08:24:40;;;;;;;8.75;7.10;;;13.10;77.50;;;;;;4981775;28;20046;-34
2024/03/27 08:27:06;;;;;;;8.07;6.57;;;13.10;77.50;;;;;;4974254;28;20033;-34
2024/03/27 08:29:33;;;;;;;8.32;6.47;;;13.10;77.50;;;;;;4969413;28;20106;-38
2024/03/27 08:31:59;;;;;;;8.70;7.25;;;13.10;77.50;;;;;;4969239;28;20028;-34
2024/03/27 08:34:26;;;;;;;8.63;7.15;;;13.10;77.50;;;;;;4975771;28;20034;-36
2024/03/27 08:36:52;;;;;;;8.65;7.10;;;13.10;78.20;;;;;;4986207;28;20035;-35
2024/03/27 08:39:20;;;;;;;8.32;7.03;;;13.10;77.60;;;;;;4983379;28;20038;-35
2024/03/27 08:41:49;;;;;;;8.73;7.25;;;13.10;77.50;;;;;;4971598;28;20027;-35
2024/03/27 08:44:16;;;;;;;8.82;7.13;;;13.10;77.60;;;;;;4983875;28;20098;-33
2024/03/27 08:46:42;;;;;;;8.73;7.18;;;13.10;77.60;;;;;;4982104;28;20037;-36
2024/03/27 08:49:12;;;;;;;9.43;7.20;;;13.10;77.60;;;;;;4981040;28;20158;-37
2024/03/27 08:51:38;;;;;;;9.15;7.63;;;13.20;77.60;;;;;;4964528;28;20027;-33
2024/03/27 08:54:03;;;;;;;9.48;7.43;;;13.10;77.50;;;;;;4965231;28;20034;-34
2024/03/27 08:56:29;;;;;;;8.60;7.20;;;13.10;77.50;;;;;;4979961;28;20033;-31
2024/03/27 08:58:55;;;;;;;9.15;7.47;;;13.10;77.50;;;;;;4984175;28;20042;-38
2024/03/27 09:01:20;;;;;;;9.63;8.00;;;13.10;77.50;;;;;;4979700;28;20059;-35
2024/03/27 09:03:47;;;;;;;9.57;8.20;;;13.10;77.50;;;;;;4979327;28;20037;-38
2024/03/27 09:06:13;;;;;;;9.48;7.88;;;13.10;77.50;;;;;;4980595;28;20022;-39
2024/03/27 09:08:39;;;;;;;9.23;7.93;;;13.20;77.60;;;;;;4980535;28;20030;-37
2024/03/27 09:11:07;;;;;;;10.25;8.15;;;13.20;77.50;;;;;;4971417;28;20043;-37
2024/03/27 09:13:33;;;;;;;10.20;8.43;;;13.20;77.50;;;;;;4965116;28;20038;-31
2024/03/27 09:15:59;;;;;;;9.73;8.20;;;13.20;77.50;;;;;;4980610;28;20019;-34
2024/03/27 09:18:26;;;;;;;9.90;8.65;;;13.20;77.50;;;;;;4979389;28;20019;-35
2024/03/27 09:20:57;;;;;;;10.15;8.52;;;13.20;77.50;;;;;;4973247;28;20063;-38
2024/03/27 09:23:24;;;;;;;9.63;8.43;;;13.20;77.50;;;;;;4977348;28;20035;-34
2024/03/27 09:25:59;;;;;;;10.07;8.73;;;13.20;77.40;;;;;;4966423;28;20031;-34
2024/03/27 09:28:25;;;;;;;10.07;8.55;;;13.20;77.40;;;;;;4975410;28;20031;-36
2024/03/27 09:30:51;;;;;;;9.75;7.95;;;13.20;77.50;;;;;;4975073;28;20113;-35
2024/03/27 09:33:17;;;;;;;9.85;8.30;;;13.20;77.40;;;;;;4969884;28;20098;-35
2024/03/27 09:35:45;;;;;;;10.05;8.52;;;13.20;77.40;;;;;;4979606;28;20023;-33
2024/03/27 09:38:11;;;;;;;8.88;7.65;;;13.20;77.40;;;;;;4981191;28;20035;-37
2024/03/27 09:40:44;;;;;;;9.93;8.48;;;13.20;77.40;;;;;;4972848;28;20366;-35
2024/03/27 09:43:14;;;;;;;10.90;8.32;;;13.30;77.50;;;;;;4979572;28;20039;-35
2024/03/27 09:45:41;;;;;;;10.23;8.75;;;13.20;77.40;;;;;;4971140;28;20039;-36
2024/03/27 09:48:08;;;;;;;10.50;8.90;;;13.30;77.40;;;;;;4981959;28;20027;-36
2024/03/27 09:50:35;;;;;;;9.52;8.35;;;13.30;77.40;;;;;;4976083;28;20066;-38
2024/03/27 09:53:04;;;;;;;9.60;8.38;;;13.20;77.30;;;;;;4971038;28;20030;-37
2024/03/27 09:55:35;;;;;;;9.23;7.78;;;13.30;77.40;;;;;;4967463;28;20035;-36
2024/03/27 09:58:10;;;;;;;9.50;8.13;;;13.30;77.40;;;;;;4986754;28;20015;-37
2024/03/27 10:00:37;;;;;;;9.90;8.60;;;13.40;77.40;;;;;;4970918;28;20459;-37
2024/03/27 10:03:03;;;;;;;11.13;8.35;;;13.30;77.30;;;;;;4976428;28;20125;-37
2024/03/27 10:05:29;;;;;;;9.35;8.20;;;13.30;77.30;;;;;;4971743;28;20117;-38
2024/03/27 10:07:56;;;;;;;9.98;8.05;;;13.30;77.30;;;;;;4979281;28;20033;-36
2024/03/27 10:10:25;;;;;;;9.45;8.23;;;13.40;77.40;;;;;;4961890;28;20055;-38
2024/03/27 10:12:54;;;;;;;9.38;8.25;;;13.40;77.40;;;;;;4969209;28;20027;-38
2024/03/27 10:15:21;;;;;;;10.05;8.70;;;13.40;77.30;;;;;;4980990;28;20066;-38
2024/03/27 10:17:47;;;;;;;9.65;7.90;;;13.40;77.30;;;;;;4990365;28;20395;-37
2024/03/27 10:20:13;;;;;;;9.27;7.82;;;13.40;77.30;;;;;;4972331;28;20111;-38
2024/03/27 10:22:39;;;;;;;9.30;8.02;;;13.40;77.30;;;;;;4979800;28;20155;-42
2024/03/27 10:25:07;;;;;;;8.98;7.72;;;13.40;77.30;;;;;;4954130;28;20027;-38
2024/03/27 10:27:37;;;;;;;9.73;8.20;;;13.40;77.30;;;;;;4979463;28;20031;-38
2024/03/27 10:30:05;;;;;;;9.13;7.63;;;13.40;77.30;;;;;;4960031;28;20424;-38
2024/03/27 10:32:31;;;;;;;9.25;7.53;;;13.50;77.30;;;;;;4968580;28;20019;-39
2024/03/27 10:34:57;;;;;;;9.63;7.38;;;13.40;77.40;;;;;;4977955;28;20216;-36
2024/03/27 10:37:25;;;;;;;8.38;6.90;;;13.50;77.30;;;;;;4980485;28;20065;-39
2024/03/27 10:39:52;;;;;;;8.27;6.75;;;13.50;77.30;;;;;;4975479;28;20046;-39
2024/03/27 10:42:21;;;;;;;8.07;6.90;;;13.50;77.20;;;;;;4973563;28;20066;-38
2024/03/27 10:44:47;;;;;;;8.52;7.10;;;13.50;77.20;;;;;;4978742;28;20042;-38
2024/03/27 10:47:14;;;;;;;8.18;6.78;;;13.50;77.20;;;;;;4981356;28;20081;-37
2024/03/27 10:49:43;;;;;;;8.18;6.68;;;13.60;77.30;;;;;;4967165;28;20055;-38
2024/03/27 10:52:10;;;;;;;8.82;6.88;;;13.50;77.20;;;;;;4972665;28;20322;-38
2024/03/27 10:54:38;;;;;;;7.57;6.03;;;13.50;77.20;;;;;;4976585;28;20029;-37
2024/03/27 10:57:06;;;;;;;7.90;6.18;;;13.60;77.30;;;;;;4959263;28;20387;-38
2024/03/27 10:59:33;;;;;;;8.20;6.45;;;13.50;77.20;;;;;;4980841;28;20031;-38
2024/03/27 11:02:03;;;;;;;7.75;6.03;;;13.60;77.30;;;;;;4978790;28;20126;-37
2024/03/27 11:04:32;;;;;;;8.35;5.90;;;13.60;77.30;;;;;;4975409;28;20027;-36
2024/03/27 11:06:58;;;;;;;8.10;6.35;;;13.60;77.30;;;;;;4979070;28;20030;-33
2024/03/27 11:09:24;;;;;;;8.45;6.07;;;13.60;77.30;;;;;;4981872;28;20102;-37
2024/03/27 11:11:50;;;;;;;7.20;5.53;;;13.60;77.20;;;;;;4965781;28;20090;-36
2024/03/27 11:14:23;;;;;;;7.25;5.60;;;13.60;77.30;;;;;;4980301;28;20048;-33
2024/03/27 11:16:52;;;;;;;8.25;5.95;;;13.60;77.30;;;;;;4975668;28;20033;-38
2024/03/27 11:19:39;;;;;;;8.00;6.15;;;13.60;77.20;;;;;;4972774;28;20019;-37
2024/03/27 11:22:15;;;;;;;7.00;5.60;;;13.70;77.20;;;;;;4963729;28;20073;-38
2024/03/27 11:24:45;;;;;;;6.88;5.22;;;13.70;77.20;;;;;;4975500;28;20034;-37
2024/03/27 11:27:11;;;;;;;6.97;5.40;;;13.70;77.20;;;;;;4984473;28;20018;-37
2024/03/27 11:29:38;;;;;;;7.45;5.50;;;13.70;77.30;;;;;;4978808;28;20533;-36
2024/03/27 11:32:05;;;;;;;6.70;5.10;;;13.70;77.20;;;;;;4971876;28;20022;-37
2024/03/27 11:34:32;;;;;;;7.05;5.57;;;13.70;77.20;;;;;;4976975;28;20054;-38
2024/03/27 11:36:59;;;;;;;6.88;5.25;;;13.70;77.10;;;;;;4979893;28;20038;-36
2024/03/27 11:39:27;;;;;;;6.90;5.22;;;13.70;77.10;;;;;;4981268;28;20031;-38
2024/03/27 11:41:53;;;;;;;7.32;5.10;;;13.80;77.10;;;;;;4983761;28;20037;-39
2024/03/27 11:44:20;;;;;;;7.30;5.10;;;13.70;77.10;;;;;;4982556;28;20094;-36
2024/03/27 11:46:46;;;;;;;7.20;5.22;;;13.70;77.10;;;;;;4979006;28;20138;-38
2024/03/27 11:49:15;;;;;;;6.97;4.97;;;13.80;77.10;;;;;;4982075;28;20024;-35
2024/03/27 11:51:42;;;;;;;6.63;4.93;;;13.80;77.70;;;;;;4976005;28;20031;-35
2024/03/27 11:54:08;;;;;;;6.55;5.05;;;13.80;77.10;;;;;;4987637;28;20525;-36
2024/03/27 11:56:36;;;;;;;6.88;5.25;;;13.80;77.10;;;;;;4983340;28;20487;-37
2024/03/27 11:59:03;;;;;;;6.82;4.72;;;13.80;77.10;;;;;;4985983;28;20023;-37
2024/03/27 12:01:32;;;;;;;6.78;4.85;;;13.80;77.10;;;;;;4973794;28;20532;-34
2024/03/27 12:03:58;;;;;;;6.43;4.50;;;13.80;77.10;;;;;;4980512;28;20567;-39
2024/03/27 12:06:28;;;;;;;6.22;4.78;;;13.80;77.10;;;;;;4983577;28;20035;-35
2024/03/27 12:08:54;;;;;;;6.80;4.50;;;13.80;77.00;;;;;;4982701;28;20086;-36
2024/03/27 12:11:20;;;;;;;6.93;5.05;;;13.80;77.00;;;;;;4975874;28;20053;-39
2024/03/27 12:13:47;;;;;;;6.38;4.65;;;13.80;77.00;;;;;;4971559;28;20546;-37
2024/03/27 12:16:14;;;;;;;5.72;4.30;;;13.90;77.70;;;;;;4981833;28;20026;-40
2024/03/27 12:18:42;;;;;;;5.85;4.28;;;13.90;77.10;;;;;;4982972;28;20033;-35
2024/03/27 12:21:15;;;;;;;6.18;4.22;;;13.90;77.00;;;;;;4975884;28;20099;-38
2024/03/27 12:23:44;;;;;;;6.13;4.55;;;14.00;77.10;;;;;;4976822;28;20069;-38
2024/03/27 12:26:14;;;;;;;6.90;4.30;;;14.00;77.00;;;;;;4971557;28;20098;-36
2024/03/27 12:28:43;;;;;;;5.43;4.10;;;13.90;76.90;;;;;;4975458;28;20403;-35
2024/03/27 12:31:12;;;;;;;5.10;3.80;;;14.00;77.00;;;;;;4979500;28;20069;-36
2024/03/27 12:33:38;;;;;;;5.88;4.60;;;13.90;76.90;;;;;;4978637;28;20109;-38
2024/03/27 12:36:04;;;;;;;5.88;4.40;;;14.00;76.90;;;;;;4962000;28;20027;-38
2024/03/27 12:38:30;;;;;;;5.45;4.07;;;14.00;76.90;;;;;;4980902;28;20086;-38
2024/03/27 12:40:56;;;;;;;5.65;4.22;;;14.00;77.00;;;;;;4981500;28;20403;-39
2024/03/27 12:43:22;;;;;;;5.60;4.18;;;14.00;76.90;;;;;;4979859;28;20057;-37
2024/03/27 12:45:47;;;;;;;5.70;4.20;;;14.00;76.90;;;;;;4978541;28;20103;-38
2024/03/27 12:48:21;;;;;;;6.03;4.25;;;14.00;77.50;;;;;;4962804;28;20388;-36
2024/03/27 12:50:51;;;;;;;5.32;3.85;;;14.10;76.90;;;;;;4986647;28;20039;-38
2024/03/27 12:53:17;;;;;;;4.95;3.47;;;14.10;77.00;;;;;;4970077;28;20105;-38
2024/03/27 12:55:43;;;;;;;5.50;4.13;;;14.10;76.90;;;;;;4978616;28;20451;-37
2024/03/27 12:58:09;;;;;;;5.57;3.80;;;14.10;77.50;;;;;;4986021;28;20037;-39
2024/03/27 13:00:36;;;;;;;5.22;3.78;;;14.10;76.90;;;;;;4978855;28;20054;-38
2024/03/27 13:03:02;;;;;;;5.47;4.13;;;14.10;76.80;;;;;;4975321;28;20121;-34